Time;durP1;ratioP1;P1;durP2;ratioP2;P2;SDS_P1;SDS_P2;PMS_P1;PMS_P2;Temp;Humidity;BMP_temperature;BMP_pressure;BME280_temperature;BME280_humidity;BME280_pressure;Samples;Min_cycle;Max_cycle;Signal;HPM_P1;HPM_P2
2021/12/11 00:01:19;;;;;;;8.32;5.00;;;5.30;99.90;;;;;;5091618;28;20047;-78
2021/12/11 00:03:54;;;;;;;7.47;6.00;;;5.30;99.90;;;;;;5090295;28;20040;-80
2021/12/11 00:06:32;;;;;;;12.18;6.10;;;5.30;99.90;;;;;;5085257;28;20028;-77
2021/12/11 00:09:07;;;;;;;11.02;6.38;;;5.30;99.90;;;;;;5109934;27;20024;-77
2021/12/11 00:11:37;;;;;;;7.57;5.70;;;5.30;99.90;;;;;;5090076;28;20028;-76
2021/12/11 00:14:08;;;;;;;6.97;5.80;;;5.30;99.90;;;;;;5091827;28;20035;-76
2021/12/11 00:16:36;;;;;;;6.90;5.85;;;5.40;99.90;;;;;;5088357;28;20030;-76
2021/12/11 00:19:16;;;;;;;6.90;5.53;;;5.40;99.90;;;;;;5085710;28;20082;-75
2021/12/11 00:21:43;;;;;;;7.00;5.40;;;5.30;99.90;;;;;;5090993;28;20036;-76
2021/12/11 00:24:17;;;;;;;14.38;9.57;;;5.30;99.90;;;;;;5091804;28;20487;-78
2021/12/11 00:26:51;;;;;;;9.73;6.80;;;5.30;99.90;;;;;;5088519;28;20025;-77
2021/12/11 00:29:21;;;;;;;7.25;5.57;;;5.40;99.90;;;;;;5077945;28;20023;-76
2021/12/11 00:31:50;;;;;;;9.98;5.35;;;5.40;99.90;;;;;;5084178;28;20039;-76
2021/12/11 00:34:18;;;;;;;9.95;5.43;;;5.40;99.90;;;;;;5091269;28;20021;-76
2021/12/11 00:37:18;;;;;;;5.60;5.10;;;5.40;99.90;;;;;;5090789;28;20028;-76
2021/12/11 00:39:57;;;;;;;9.63;5.13;;;5.40;99.90;;;;;;5067378;28;20941;-76
2021/12/11 00:42:31;;;;;;;7.28;5.97;;;5.40;99.90;;;;;;5083619;28;20020;-81
2021/12/11 00:44:59;;;;;;;5.45;4.68;;;5.40;99.90;;;;;;5087449;28;20035;-78
2021/12/11 00:47:33;;;;;;;5.82;4.97;;;5.40;99.90;;;;;;5089102;28;20111;-80
2021/12/11 00:50:10;;;;;;;9.88;7.50;;;5.30;99.90;;;;;;5083612;28;20390;-76
2021/12/11 00:52:51;;;;;;;9.70;5.18;;;5.20;99.90;;;;;;5089614;28;20098;-76
2021/12/11 00:55:16;;;;;;;6.70;4.95;;;5.10;99.90;;;;;;5083836;28;20020;-75
2021/12/11 00:57:43;;;;;;;6.30;4.75;;;5.10;99.90;;;;;;5089720;28;20031;-76
2021/12/11 01:00:15;;;;;;;5.97;4.07;;;5.00;99.90;;;;;;5090573;28;20024;-76
2021/12/11 01:02:43;;;;;;;4.50;3.83;;;5.00;99.90;;;;;;5089105;28;20024;-76
2021/12/11 01:05:10;;;;;;;4.03;3.30;;;5.10;99.90;;;;;;5090133;28;20036;-76
2021/12/11 01:07:37;;;;;;;3.88;3.13;;;5.10;99.90;;;;;;5090034;28;20548;-75
2021/12/11 01:10:12;;;;;;;4.32;3.80;;;5.20;99.90;;;;;;5086654;28;20071;-76
2021/12/11 01:12:50;;;;;;;5.10;3.58;;;5.30;99.90;;;;;;5084663;28;20035;-75
2021/12/11 01:15:32;;;;;;;4.05;3.65;;;5.30;99.90;;;;;;5086842;28;20399;-76
2021/12/11 01:18:22;;;;;;;7.60;4.18;;;5.30;99.90;;;;;;5086958;28;20044;-76
2021/12/11 01:21:01;;;;;;;4.07;3.67;;;5.30;99.90;;;;;;5083591;28;20039;-76
2021/12/11 01:26:11;;;;;;;6.50;4.45;;;5.30;99.90;;;;;;5082412;28;20021;-75
2021/12/11 01:28:38;;;;;;;6.30;3.90;;;5.30;99.90;;;;;;5088389;28;20735;-75
2021/12/11 01:31:07;;;;;;;4.90;3.63;;;5.30;99.90;;;;;;5083765;28;20052;-76
2021/12/11 01:33:33;;;;;;;5.85;4.18;;;5.30;99.90;;;;;;5085965;28;20020;-76
2021/12/11 01:35:59;;;;;;;8.40;5.22;;;5.20;99.90;;;;;;5090233;28;20028;-76
2021/12/11 01:38:29;;;;;;;5.97;4.38;;;5.20;99.90;;;;;;5083740;28;20012;-76
2021/12/11 01:40:59;;;;;;;5.32;4.45;;;5.20;99.90;;;;;;5089114;28;20529;-76
2021/12/11 01:43:28;;;;;;;5.28;3.72;;;5.20;99.90;;;;;;5086513;28;20035;-77
2021/12/11 01:45:57;;;;;;;4.43;4.03;;;5.10;99.90;;;;;;5084525;28;20024;-76
2021/12/11 01:48:33;;;;;;;5.93;4.20;;;5.20;99.90;;;;;;5085966;28;20020;-76
2021/12/11 01:51:06;;;;;;;6.88;4.82;;;5.10;99.90;;;;;;5088202;28;20651;-76
2021/12/11 01:53:42;;;;;;;5.35;4.35;;;5.10;99.90;;;;;;5082525;28;20023;-76
2021/12/11 01:56:19;;;;;;;10.25;4.60;;;5.30;99.90;;;;;;5088068;28;20038;-76
2021/12/11 01:58:58;;;;;;;5.57;3.92;;;5.40;99.90;;;;;;5089233;28;20119;-76
2021/12/11 02:02:01;;;;;;;5.70;4.18;;;5.70;99.90;;;;;;5082645;28;20021;-76
2021/12/11 02:04:29;;;;;;;7.40;3.97;;;5.90;99.90;;;;;;5084384;28;20070;-76
2021/12/11 02:06:55;;;;;;;6.75;4.60;;;6.00;99.90;;;;;;5088258;28;20555;-76
2021/12/11 02:09:29;;;;;;;6.25;4.88;;;5.90;99.90;;;;;;5087685;28;20107;-76
2021/12/11 02:12:21;;;;;;;6.40;4.10;;;5.80;99.90;;;;;;5083614;28;20493;-77
2021/12/11 02:14:51;;;;;;;5.65;4.13;;;5.70;99.90;;;;;;5086633;28;20024;-76
2021/12/11 02:17:22;;;;;;;9.48;5.50;;;5.70;99.90;;;;;;5080821;28;20035;-77
2021/12/11 02:19:50;;;;;;;9.38;6.18;;;5.70;99.90;;;;;;5088334;28;20821;-76
2021/12/11 02:22:20;;;;;;;5.85;4.30;;;5.60;99.90;;;;;;5086100;28;20095;-77
2021/12/11 02:24:55;;;;;;;5.43;3.85;;;5.50;99.90;;;;;;5089987;28;20048;-76
2021/12/11 02:27:30;;;;;;;6.43;4.70;;;5.40;99.90;;;;;;5104521;28;20048;-76
2021/12/11 02:30:20;;;;;;;5.72;3.85;;;5.30;99.90;;;;;;5087343;28;20028;-76
2021/12/11 02:33:19;;;;;;;5.45;4.25;;;5.30;99.90;;;;;;5088216;28;20060;-77
2021/12/11 02:35:54;;;;;;;4.82;3.45;;;5.30;99.90;;;;;;5083876;28;20160;-76
2021/12/11 02:38:34;;;;;;;3.05;2.45;;;5.30;99.90;;;;;;5088483;28;20051;-78
2021/12/11 02:41:11;;;;;;;5.15;3.53;;;5.30;99.90;;;;;;5086534;28;20044;-77
2021/12/11 02:43:45;;;;;;;9.57;3.72;;;5.30;99.90;;;;;;5082899;28;20043;-76
2021/12/11 02:46:35;;;;;;;5.10;3.88;;;5.20;99.90;;;;;;5088626;28;20043;-76
2021/12/11 02:49:08;;;;;;;6.63;4.60;;;5.20;99.90;;;;;;5087978;28;20036;-77
2021/12/11 02:51:55;;;;;;;4.97;3.90;;;5.10;99.90;;;;;;5088957;28;20036;-79
2021/12/11 02:54:31;;;;;;;5.95;3.25;;;5.10;99.90;;;;;;5087375;28;20111;-77
2021/12/11 02:57:03;;;;;;;6.07;4.50;;;5.00;99.90;;;;;;5080734;28;20520;-77
2021/12/11 02:59:31;;;;;;;;;;;5.00;99.90;;;;;;5112488;27;20051;-77
2021/12/11 03:02:05;;;;;;;6.88;3.85;;;5.00;99.90;;;;;;5083780;28;19908;-78
2021/12/11 03:04:37;;;;;;;5.00;2.88;;;5.00;99.90;;;;;;5090535;28;20355;-77
2021/12/11 03:07:08;;;;;;;5.60;3.97;;;5.10;99.90;;;;;;5091247;28;20035;-77
2021/12/11 03:09:37;;;;;;;6.03;4.22;;;5.10;99.90;;;;;;5085290;28;20039;-77
2021/12/11 03:12:06;;;;;;;3.80;3.00;;;5.20;99.90;;;;;;5102762;28;20413;-77
2021/12/11 03:14:32;;;;;;;4.38;3.17;;;5.20;99.90;;;;;;5090858;28;20043;-77
2021/12/11 03:16:59;;;;;;;5.68;4.15;;;5.30;99.90;;;;;;5092046;28;20035;-76
2021/12/11 03:19:31;;;;;;;5.63;3.13;;;5.30;99.90;;;;;;5087807;28;20047;-77
2021/12/11 03:21:59;;;;;;;5.22;3.95;;;5.30;99.90;;;;;;5092168;28;20024;-76
2021/12/11 03:24:27;;;;;;;3.47;2.80;;;5.20;99.90;;;;;;5088142;28;20024;-76
2021/12/11 03:26:55;;;;;;;6.00;3.78;;;5.10;99.90;;;;;;5092692;28;20474;-78
2021/12/11 03:29:22;;;;;;;6.85;3.75;;;5.00;99.90;;;;;;5092064;28;20270;-77
2021/12/11 03:31:48;;;;;;;7.15;4.72;;;4.90;99.90;;;;;;5083418;28;20070;-76
2021/12/11 03:34:18;;;;;;;8.18;5.45;;;4.80;99.90;;;;;;5088463;28;20032;-77
2021/12/11 03:36:45;;;;;;;9.60;6.60;;;4.80;99.90;;;;;;5089382;28;20534;-76
2021/12/11 03:39:17;;;;;;;13.48;8.18;;;4.70;99.90;;;;;;5087782;28;20028;-77
2021/12/11 03:41:45;;;;;;;9.65;6.47;;;4.50;99.90;;;;;;5090507;28;20078;-77
2021/12/11 03:44:11;;;;;;;11.15;7.55;;;4.40;99.90;;;;;;5082530;28;20020;-77
2021/12/11 03:46:37;;;;;;;19.85;10.40;;;4.40;99.90;;;;;;5090805;28;20028;-76
2021/12/11 03:49:09;;;;;;;19.83;10.32;;;4.30;99.90;;;;;;5086605;28;20379;-77
2021/12/11 03:51:38;;;;;;;16.65;10.35;;;4.30;99.90;;;;;;5090179;28;20375;-77
2021/12/11 03:54:07;;;;;;;15.15;9.32;;;4.30;99.90;;;;;;5088172;28;20025;-76
2021/12/11 03:56:33;;;;;;;18.90;10.38;;;4.30;99.90;;;;;;5091655;28;20060;-76
2021/12/11 03:59:00;;;;;;;11.38;6.38;;;4.30;99.90;;;;;;5084238;28;20425;-77
2021/12/11 04:01:30;;;;;;;18.92;8.65;;;4.30;99.90;;;;;;5088787;28;20054;-77
2021/12/11 04:04:02;;;;;;;17.85;11.15;;;4.40;99.90;;;;;;5084239;28;20387;-78
2021/12/11 04:06:28;;;;;;;13.98;8.70;;;4.50;99.90;;;;;;5088831;28;20127;-76
2021/12/11 04:08:54;;;;;;;14.15;8.77;;;4.50;99.90;;;;;;5090602;28;20111;-76
2021/12/11 04:11:30;;;;;;;14.32;7.40;;;4.60;99.90;;;;;;5088617;28;20036;-76
2021/12/11 04:14:00;;;;;;;10.15;6.63;;;4.70;99.90;;;;;;5082829;28;20056;-76
2021/12/11 04:16:27;;;;;;;10.35;6.68;;;4.80;99.90;;;;;;5091517;28;20118;-76
2021/12/11 04:18:53;;;;;;;11.05;6.63;;;4.90;99.90;;;;;;5090671;28;20020;-77
2021/12/11 04:21:19;;;;;;;7.65;5.10;;;5.00;99.90;;;;;;5090777;28;20101;-77
2021/12/11 04:23:45;;;;;;;7.40;5.45;;;5.10;99.90;;;;;;5089341;28;20024;-76
2021/12/11 04:26:11;;;;;;;8.63;5.55;;;5.20;99.90;;;;;;5091038;28;20210;-76
2021/12/11 04:28:39;;;;;;;6.15;4.32;;;5.30;99.90;;;;;;5089505;28;20024;-77
2021/12/11 04:31:10;;;;;;;9.15;5.13;;;5.40;99.90;;;;;;5091515;28;20044;-77
2021/12/11 04:33:40;;;;;;;9.40;5.55;;;5.50;99.90;;;;;;5089582;28;20394;-79
2021/12/11 04:36:11;;;;;;;6.07;3.97;;;5.40;99.90;;;;;;5090720;28;20024;-77
2021/12/11 04:38:37;;;;;;;10.00;7.28;;;5.50;99.90;;;;;;5090282;28;20020;-78
2021/12/11 04:41:04;;;;;;;9.93;6.43;;;5.50;99.90;;;;;;5085570;28;20040;-77
2021/12/11 04:43:32;;;;;;;10.05;4.88;;;5.50;99.90;;;;;;5086019;28;20383;-77
2021/12/11 04:46:08;;;;;;;7.03;5.22;;;5.50;99.90;;;;;;5088746;28;20028;-77
2021/12/11 05:03:08;;;;;;;8.52;5.53;;;5.70;99.90;;;;;;5089426;28;20390;-77
2021/12/11 05:09:59;;;;;;;7.00;4.93;;;6.00;99.90;;;;;;5085628;28;20118;-76
2021/12/11 05:13:00;;;;;;;8.57;5.43;;;6.00;99.90;;;;;;5088793;28;20085;-77
2021/12/11 05:15:26;;;;;;;7.38;5.10;;;6.00;99.90;;;;;;5082871;28;20024;-77
2021/12/11 05:17:52;;;;;;;6.57;4.70;;;6.10;99.90;;;;;;5088402;28;20025;-78
2021/12/11 05:20:22;;;;;;;7.47;5.32;;;6.10;99.90;;;;;;5086016;28;20023;-76
2021/12/11 05:22:48;;;;;;;8.13;5.85;;;6.10;99.90;;;;;;5087755;28;20020;-77
2021/12/11 05:25:14;;;;;;;8.70;5.32;;;6.20;99.90;;;;;;5084761;28;20050;-76
2021/12/11 05:27:42;;;;;;;6.38;3.85;;;6.20;99.90;;;;;;5090661;28;20089;-77
2021/12/11 05:30:16;;;;;;;10.25;6.00;;;6.20;99.90;;;;;;5083399;28;20024;-76
2021/12/11 05:32:42;;;;;;;6.90;4.25;;;6.10;99.90;;;;;;5090154;28;20036;-77
2021/12/11 05:35:09;;;;;;;10.80;6.28;;;6.10;99.90;;;;;;5079835;28;20036;-76
2021/12/11 05:37:35;;;;;;;7.80;5.93;;;6.10;99.90;;;;;;5085286;28;20059;-76
2021/12/11 05:40:01;;;;;;;9.88;6.72;;;6.00;99.90;;;;;;5088894;28;20067;-76
2021/12/11 05:42:27;;;;;;;6.35;4.25;;;6.00;99.90;;;;;;5086341;28;20032;-76
2021/12/11 05:44:53;;;;;;;12.30;6.90;;;6.00;99.90;;;;;;5088874;28;20043;-75
2021/12/11 05:47:20;;;;;;;7.35;5.75;;;6.10;99.90;;;;;;5090040;28;20045;-76
2021/12/11 05:49:47;;;;;;;8.38;4.38;;;6.10;99.90;;;;;;5085887;28;20027;-76
2021/12/11 05:52:13;;;;;;;7.20;4.60;;;6.10;99.90;;;;;;5087869;28;20032;-76
2021/12/11 05:54:41;;;;;;;13.68;6.10;;;6.00;99.90;;;;;;5088582;28;20024;-75
2021/12/11 05:57:11;;;;;;;7.88;4.95;;;6.00;99.90;;;;;;5088402;28;20024;-76
2021/12/11 05:59:38;;;;;;;8.27;4.80;;;6.10;99.90;;;;;;5088876;28;20028;-75
2021/12/11 06:02:20;;;;;;;8.35;4.75;;;6.30;99.90;;;;;;5087003;28;20082;-76
2021/12/11 06:04:49;;;;;;;7.32;4.25;;;6.20;99.90;;;;;;5088181;28;20470;-76
2021/12/11 06:07:18;;;;;;;6.38;3.85;;;6.30;99.90;;;;;;5081691;28;20482;-77
2021/12/11 06:09:48;;;;;;;6.30;4.35;;;6.20;99.90;;;;;;5101153;28;20032;-78
2021/12/11 06:12:16;;;;;;;4.38;3.08;;;6.10;99.90;;;;;;5089628;28;20089;-79
2021/12/11 06:14:43;;;;;;;5.30;3.60;;;6.40;99.90;;;;;;5084257;28;20060;-76
2021/12/11 06:17:11;;;;;;;6.53;3.72;;;6.50;99.90;;;;;;5086107;28;20028;-76
2021/12/11 06:19:38;;;;;;;5.25;3.92;;;6.40;99.90;;;;;;5089116;28;20031;-77
2021/12/11 06:22:04;;;;;;;4.00;2.45;;;6.50;99.90;;;;;;5086952;28;20028;-76
2021/12/11 06:24:30;;;;;;;5.32;3.90;;;6.50;99.90;;;;;;5089758;28;20028;-76
2021/12/11 06:26:57;;;;;;;11.65;4.15;;;6.70;99.90;;;;;;5083612;28;20039;-76
2021/12/11 06:29:23;;;;;;;7.68;3.75;;;6.60;99.90;;;;;;5091867;28;20024;-77
2021/12/11 06:31:53;;;;;;;4.88;3.22;;;6.60;99.90;;;;;;5092318;28;20043;-77
2021/12/11 06:34:19;;;;;;;5.72;2.70;;;6.70;99.90;;;;;;5092757;28;20039;-76
2021/12/11 06:36:47;;;;;;;3.08;2.55;;;6.70;99.90;;;;;;5092269;28;20032;-77
2021/12/11 06:39:16;;;;;;;4.57;3.72;;;6.70;99.90;;;;;;5092862;28;20482;-76
2021/12/11 06:41:45;;;;;;;3.30;2.83;;;6.80;99.90;;;;;;5092933;28;20040;-77
2021/12/11 06:44:12;;;;;;;6.22;3.90;;;6.80;99.90;;;;;;5092941;28;20107;-76
2021/12/11 06:46:41;;;;;;;1.45;1.33;;;6.80;99.90;;;;;;5093188;28;20374;-76
2021/12/11 06:49:07;;;;;;;3.55;2.72;;;7.00;99.90;;;;;;5086300;28;20386;-76
2021/12/11 06:51:34;;;;;;;5.50;2.80;;;7.10;99.90;;;;;;5092133;28;20035;-77
2021/12/11 06:54:04;;;;;;;4.78;3.33;;;6.90;99.90;;;;;;5091800;28;20035;-77
2021/12/11 06:56:30;;;;;;;4.53;3.75;;;6.90;99.90;;;;;;5092894;28;20603;-76
2021/12/11 06:58:58;;;;;;;4.50;3.75;;;6.90;99.90;;;;;;5091951;28;20077;-76
2021/12/11 07:01:25;;;;;;;5.35;3.40;;;6.90;99.90;;;;;;5092795;28;20020;-77
2021/12/11 07:03:52;;;;;;;3.47;2.28;;;7.00;99.90;;;;;;5093522;28;20466;-77
2021/12/11 07:06:18;;;;;;;3.28;2.75;;;7.10;99.90;;;;;;5085738;28;20016;-77
2021/12/11 07:08:44;;;;;;;6.45;2.35;;;7.30;99.90;;;;;;5086730;28;20134;-77
2021/12/11 07:11:15;;;;;;;4.50;3.88;;;7.40;99.90;;;;;;5090070;28;20032;-76
2021/12/11 07:13:42;;;;;;;3.88;2.03;;;7.40;99.90;;;;;;5091716;28;20028;-77
2021/12/11 07:16:09;;;;;;;5.65;3.45;;;7.30;99.90;;;;;;5091649;28;20028;-76
2021/12/11 07:18:36;;;;;;;4.53;3.17;;;7.30;99.90;;;;;;5094067;28;20081;-77
2021/12/11 07:21:03;;;;;;;3.47;2.47;;;7.20;99.90;;;;;;5094113;28;20105;-77
2021/12/11 07:23:31;;;;;;;3.40;2.90;;;7.50;99.90;;;;;;5093326;28;20533;-76
2021/12/11 07:26:13;;;;;;;4.22;2.75;;;7.40;99.90;;;;;;5090352;28;20035;-76
2021/12/11 07:28:40;;;;;;;3.78;3.10;;;7.50;99.90;;;;;;5089774;28;20019;-76
2021/12/11 07:31:06;;;;;;;3.22;2.40;;;7.40;99.90;;;;;;5084587;28;20032;-77
2021/12/11 07:33:32;;;;;;;4.13;2.65;;;7.40;99.90;;;;;;5089845;28;20498;-77
2021/12/11 07:35:58;;;;;;;5.13;3.28;;;7.30;99.90;;;;;;5090811;28;20028;-77
2021/12/11 07:38:24;;;;;;;6.63;3.60;;;7.20;99.90;;;;;;5090431;28;20031;-76
2021/12/11 07:40:53;;;;;;;4.57;2.80;;;7.10;99.90;;;;;;5090428;28;20069;-77
2021/12/11 07:43:22;;;;;;;4.93;3.20;;;7.40;99.90;;;;;;5090633;28;20069;-77
2021/12/11 07:45:48;;;;;;;8.95;3.40;;;7.50;99.90;;;;;;5092173;28;20482;-78
2021/12/11 07:48:14;;;;;;;6.90;3.88;;;7.40;99.90;;;;;;5092811;28;20063;-77
2021/12/11 07:50:41;;;;;;;5.47;3.42;;;7.50;99.90;;;;;;5089878;28;20471;-77
2021/12/11 07:53:06;;;;;;;6.78;3.47;;;7.20;99.90;;;;;;5084868;28;20032;-78
2021/12/11 07:55:33;;;;;;;6.38;5.03;;;7.10;99.90;;;;;;5090780;28;20047;-84
2021/12/11 07:58:05;;;;;;;5.68;3.75;;;7.00;99.90;;;;;;5092667;28;20039;-78
2021/12/11 08:00:32;;;;;;;8.65;4.47;;;7.20;99.90;;;;;;5092202;28;20020;-81
2021/12/11 08:03:01;;;;;;;5.25;3.53;;;7.20;99.90;;;;;;5091129;28;20110;-79
2021/12/11 08:05:28;;;;;;;9.63;4.65;;;7.30;99.90;;;;;;5090503;28;20020;-78
2021/12/11 08:07:58;;;;;;;9.25;5.38;;;7.20;99.90;;;;;;5090461;28;20028;-80
2021/12/11 08:10:24;;;;;;;6.25;4.10;;;7.10;99.90;;;;;;5101098;27;20479;-82
2021/12/11 08:12:50;;;;;;;8.07;4.97;;;7.30;99.90;;;;;;5090024;28;20032;-82
2021/12/11 08:15:17;;;;;;;5.68;3.55;;;7.10;99.90;;;;;;5086024;28;20027;-81
2021/12/11 08:17:45;;;;;;;7.57;5.93;;;7.10;99.90;;;;;;5094597;28;20024;-79
2021/12/11 08:20:12;;;;;;;5.78;4.07;;;7.10;99.90;;;;;;5089597;28;20534;-83
2021/12/11 08:22:38;;;;;;;9.18;4.45;;;7.10;99.90;;;;;;5084271;28;20021;-80
2021/12/11 08:25:06;;;;;;;10.43;6.32;;;7.30;99.90;;;;;;5080738;28;20106;-80
2021/12/11 08:27:33;;;;;;;11.63;6.68;;;7.20;99.90;;;;;;5090277;28;20020;-81
2021/12/11 08:29:59;;;;;;;11.30;6.55;;;7.00;99.90;;;;;;5084834;28;20510;-82
2021/12/11 08:32:25;;;;;;;11.02;4.97;;;7.00;99.90;;;;;;5080734;28;20040;-79
2021/12/11 08:34:52;;;;;;;5.50;3.63;;;7.00;99.90;;;;;;5086114;28;20409;-81
2021/12/11 08:37:20;;;;;;;10.75;7.28;;;7.20;99.90;;;;;;5117150;27;20526;-80
2021/12/11 08:39:47;;;;;;;8.45;4.38;;;7.20;99.90;;;;;;5088640;28;20043;-81
2021/12/11 08:42:18;;;;;;;8.43;5.40;;;7.30;99.90;;;;;;5089085;28;20113;-79
2021/12/11 08:44:57;;;;;;;7.88;4.63;;;7.50;99.90;;;;;;5083554;28;20017;-82
2021/12/11 08:47:24;;;;;;;6.53;4.43;;;7.30;99.90;;;;;;5088398;28;20081;-81
2021/12/11 08:49:52;;;;;;;8.65;5.03;;;7.60;99.90;;;;;;5086793;28;20088;-79
2021/12/11 08:52:23;;;;;;;5.30;3.35;;;7.40;99.90;;;;;;5114874;27;20502;-79
2021/12/11 08:54:49;;;;;;;10.05;6.07;;;7.50;99.90;;;;;;5087841;28;20028;-79
2021/12/11 08:57:21;;;;;;;7.82;5.45;;;7.40;99.90;;;;;;5088854;28;20020;-80
2021/12/11 08:59:51;;;;;;;14.00;6.03;;;7.60;99.90;;;;;;5083920;28;20020;-80
2021/12/11 09:02:22;;;;;;;4.00;2.60;;;7.40;99.90;;;;;;5089582;28;20035;-80
2021/12/11 09:05:05;;;;;;;7.00;4.95;;;7.50;99.90;;;;;;5089495;28;20024;-80
2021/12/11 09:07:59;;;;;;;10.20;6.40;;;7.30;99.90;;;;;;5084860;28;20027;-80
2021/12/11 09:10:31;;;;;;;10.32;6.55;;;7.20;99.90;;;;;;5080067;28;22307;-81
2021/12/11 09:13:10;;;;;;;13.73;6.95;;;7.00;99.90;;;;;;5090012;28;20394;-81
2021/12/11 09:15:42;;;;;;;11.98;8.93;;;7.10;99.90;;;;;;5084762;28;20471;-80
2021/12/11 09:18:21;;;;;;;14.05;9.10;;;7.10;99.90;;;;;;5083493;28;20067;-80
2021/12/11 09:20:53;;;;;;;13.05;6.28;;;7.10;99.90;;;;;;5090570;28;20032;-80
2021/12/11 09:23:30;;;;;;;14.80;7.60;;;7.00;99.90;;;;;;5091258;28;20080;-80
2021/12/11 09:26:20;;;;;;;11.85;6.28;;;6.80;99.90;;;;;;5090433;28;20032;-81
2021/12/11 09:29:24;;;;;;;14.18;6.82;;;6.70;99.90;;;;;;5091256;28;20130;-80
2021/12/11 09:32:01;;;;;;;10.82;4.82;;;6.80;99.90;;;;;;5043237;28;20093;-80
2021/12/11 09:34:34;;;;;;;6.10;3.88;;;7.00;99.90;;;;;;5087771;28;20046;-79
2021/12/11 09:37:02;;;;;;;6.75;5.00;;;7.20;99.90;;;;;;5088525;28;20056;-82
2021/12/11 09:39:31;;;;;;;6.22;4.30;;;7.10;99.90;;;;;;5087876;28;20453;-80
2021/12/11 09:41:56;;;;;;;7.22;4.80;;;7.40;99.90;;;;;;5090632;28;20043;-80
2021/12/11 09:44:24;;;;;;;9.35;5.55;;;7.40;99.90;;;;;;5090635;28;20024;-80
2021/12/11 09:47:00;;;;;;;8.20;5.30;;;7.40;99.90;;;;;;5089654;28;20028;-80
2021/12/11 09:49:31;;;;;;;7.22;5.00;;;7.20;99.90;;;;;;5104359;28;20402;-79
2021/12/11 09:52:14;;;;;;;7.40;4.50;;;7.10;99.90;;;;;;5089937;28;20401;-81
2021/12/11 09:54:40;;;;;;;9.10;5.63;;;7.10;99.90;;;;;;5089983;28;20024;-80
2021/12/11 09:57:14;;;;;;;8.60;5.82;;;7.10;99.90;;;;;;5089702;28;20085;-81
2021/12/11 09:59:42;;;;;;;7.70;4.90;;;7.10;99.90;;;;;;5088917;28;20088;-80
2021/12/11 10:02:16;;;;;;;5.97;5.03;;;7.30;99.90;;;;;;5089414;28;20146;-80
2021/12/11 10:05:35;;;;;;;11.02;5.40;;;7.20;99.90;;;;;;5088133;28;20027;-80
2021/12/11 10:10:55;;;;;;;11.80;7.20;;;7.20;99.90;;;;;;5093900;28;20081;-80
2021/12/11 10:13:20;;;;;;;7.75;5.05;;;7.20;99.90;;;;;;5094574;28;20264;-80
2021/12/11 10:15:46;;;;;;;8.18;5.88;;;7.10;99.90;;;;;;5093970;28;20095;-80
2021/12/11 10:18:18;;;;;;;9.63;5.40;;;7.20;99.90;;;;;;5094675;28;20028;-80
2021/12/11 10:20:53;;;;;;;9.00;5.18;;;7.10;99.90;;;;;;5094088;28;20085;-80
2021/12/11 10:23:23;;;;;;;9.90;6.72;;;7.10;99.90;;;;;;5094427;28;20067;-79
2021/12/11 10:25:50;;;;;;;7.32;4.32;;;7.00;99.90;;;;;;5093712;28;20008;-79
2021/12/11 10:28:22;;;;;;;7.57;5.40;;;6.90;99.90;;;;;;5094632;28;20020;-80
2021/12/11 10:30:54;;;;;;;9.40;6.72;;;7.00;99.90;;;;;;5093739;28;20024;-79
2021/12/11 10:33:23;;;;;;;11.32;7.03;;;7.00;99.90;;;;;;5095410;28;20117;-80
2021/12/11 10:35:51;;;;;;;7.55;5.10;;;7.10;99.90;;;;;;5093582;28;20023;-80
2021/12/11 10:38:19;;;;;;;8.82;5.38;;;7.10;99.90;;;;;;5094148;28;20024;-81
2021/12/11 10:40:53;;;;;;;7.20;4.93;;;7.20;99.90;;;;;;5090742;28;20044;-80
2021/12/11 10:43:30;;;;;;;8.82;6.22;;;6.90;99.90;;;;;;5093886;28;20031;-80
2021/12/11 10:45:58;;;;;;;8.55;5.03;;;7.00;99.90;;;;;;5093382;28;20118;-80
2021/12/11 10:48:32;;;;;;;10.13;6.55;;;6.90;99.90;;;;;;5093737;28;20030;-81
2021/12/11 10:51:15;;;;;;;10.40;5.57;;;6.90;99.90;;;;;;5093210;28;20032;-80
2021/12/11 10:53:42;;;;;;;;;;;6.90;99.90;;;;;;5092501;28;20105;-79
2021/12/11 10:56:11;;;;;;;10.50;6.50;;;7.00;99.90;;;;;;5091073;28;20286;-79
2021/12/11 10:58:40;;;;;;;12.60;5.90;;;7.10;99.90;;;;;;5092216;28;20417;-79
2021/12/11 11:01:11;;;;;;;10.55;5.88;;;7.10;99.90;;;;;;5093307;28;20028;-79
2021/12/11 11:03:41;;;;;;;8.75;5.43;;;7.10;99.90;;;;;;5090771;28;20032;-79
2021/12/11 11:06:08;;;;;;;12.32;5.68;;;7.10;99.90;;;;;;5091376;28;20028;-79
2021/12/11 11:08:34;;;;;;;10.48;6.68;;;7.20;99.90;;;;;;5091260;28;20036;-79
2021/12/11 11:11:05;;;;;;;11.73;5.65;;;7.20;99.90;;;;;;5091651;28;20422;-80
2021/12/11 11:13:31;;;;;;;7.50;4.90;;;7.10;99.90;;;;;;5092909;28;20028;-80
2021/12/11 11:15:57;;;;;;;14.48;6.97;;;7.10;99.90;;;;;;5092110;28;20032;-80
2021/12/11 11:18:26;;;;;;;10.68;5.95;;;7.10;99.90;;;;;;5091826;28;20078;-80
2021/12/11 11:20:57;;;;;;;7.20;3.45;;;7.10;99.90;;;;;;5092431;28;20039;-79
2021/12/11 11:23:23;;;;;;;8.23;5.47;;;7.10;99.90;;;;;;5093142;28;20020;-79
2021/12/11 11:25:53;;;;;;;9.05;6.43;;;7.00;99.90;;;;;;5092439;28;20027;-79
2021/12/11 11:28:23;;;;;;;8.63;6.05;;;7.10;99.90;;;;;;5091744;28;20024;-79
2021/12/11 11:30:57;;;;;;;10.10;6.78;;;7.10;99.90;;;;;;5092180;28;20028;-79
2021/12/11 11:33:23;;;;;;;7.63;5.45;;;7.20;99.90;;;;;;5091610;28;20170;-80
2021/12/11 11:35:50;;;;;;;5.70;4.43;;;7.10;99.90;;;;;;5092426;28;20374;-79
2021/12/11 11:38:23;;;;;;;10.98;6.78;;;7.10;99.90;;;;;;5093246;28;20024;-80
2021/12/11 11:40:54;;;;;;;12.90;7.10;;;7.10;99.90;;;;;;5091212;28;20063;-79
2021/12/11 11:43:21;;;;;;;9.43;5.80;;;7.20;99.90;;;;;;5092806;28;20124;-79
2021/12/11 11:45:52;;;;;;;6.70;4.35;;;7.30;99.90;;;;;;5090647;28;20039;-79
2021/12/11 11:48:20;;;;;;;8.77;5.72;;;7.30;99.90;;;;;;5091331;28;20382;-79
2021/12/11 11:50:54;;;;;;;8.63;4.13;;;7.30;99.90;;;;;;5090165;28;20521;-79
2021/12/11 11:53:24;;;;;;;10.00;6.05;;;7.20;99.90;;;;;;5090538;28;20028;-80
2021/12/11 11:55:56;;;;;;;8.18;5.00;;;7.20;99.90;;;;;;5090222;28;20501;-79
2021/12/11 11:58:22;;;;;;;10.13;6.00;;;7.10;99.90;;;;;;5092583;28;20059;-80
2021/12/11 12:00:53;;;;;;;8.05;3.67;;;7.10;99.90;;;;;;5091773;28;20059;-78
2021/12/11 12:03:23;;;;;;;9.93;4.78;;;7.10;99.90;;;;;;5092622;28;20114;-78
2021/12/11 12:05:52;;;;;;;7.47;5.50;;;7.10;99.90;;;;;;5091050;28;20023;-79
2021/12/11 12:08:18;;;;;;;7.88;5.55;;;7.10;99.90;;;;;;5092315;28;20039;-79
2021/12/11 12:10:46;;;;;;;8.65;6.05;;;7.10;99.90;;;;;;5085257;28;20111;-80
2021/12/11 12:13:13;;;;;;;8.00;6.20;;;7.20;99.90;;;;;;5090687;28;20039;-79
2021/12/11 12:15:47;;;;;;;9.32;6.30;;;7.20;99.90;;;;;;5091079;28;20035;-78
2021/12/11 12:18:14;;;;;;;8.23;5.30;;;7.20;99.90;;;;;;5090919;28;20697;-79
2021/12/11 12:20:41;;;;;;;8.23;5.82;;;7.20;99.90;;;;;;5091076;28;20024;-80
2021/12/11 12:23:08;;;;;;;8.65;5.10;;;7.20;99.90;;;;;;5092064;28;20032;-80
2021/12/11 12:25:36;;;;;;;13.32;5.97;;;7.20;99.90;;;;;;5091094;28;20063;-79
2021/12/11 12:28:02;;;;;;;10.45;5.80;;;7.20;99.90;;;;;;5090603;28;20482;-79
2021/12/11 12:30:32;;;;;;;9.82;6.30;;;7.20;99.90;;;;;;5090234;28;20020;-78
2021/12/11 12:32:59;;;;;;;10.48;6.45;;;7.10;99.90;;;;;;5090806;28;20078;-80
2021/12/11 12:35:27;;;;;;;9.55;6.70;;;7.10;99.90;;;;;;5090754;28;20111;-80
2021/12/11 12:37:54;;;;;;;11.60;5.80;;;7.10;99.90;;;;;;5091763;28;20542;-80
2021/12/11 12:40:31;;;;;;;7.03;4.60;;;7.10;99.90;;;;;;5091011;28;20651;-79
2021/12/11 12:43:09;;;;;;;6.60;4.80;;;7.20;99.90;;;;;;5090903;28;20032;-79
2021/12/11 12:45:37;;;;;;;6.82;4.10;;;7.10;99.90;;;;;;5091128;28;20022;-80
2021/12/11 12:48:09;;;;;;;9.18;5.45;;;7.00;99.90;;;;;;5084406;28;20036;-80
2021/12/11 12:50:45;;;;;;;7.25;4.75;;;6.90;99.90;;;;;;5089440;28;20048;-78
2021/12/11 12:53:12;;;;;;;8.27;5.40;;;6.90;99.90;;;;;;5084199;28;20394;-79
2021/12/11 12:55:53;;;;;;;7.40;4.97;;;6.90;99.90;;;;;;5089289;28;20032;-79
2021/12/11 12:58:29;;;;;;;10.23;6.03;;;7.00;99.90;;;;;;5091380;28;20053;-79
2021/12/11 13:01:01;;;;;;;9.02;5.85;;;7.10;99.90;;;;;;5090567;28;20023;-80
2021/12/11 13:03:30;;;;;;;5.75;3.72;;;7.10;99.90;;;;;;5091486;28;20028;-79
2021/12/11 13:06:04;;;;;;;9.48;5.95;;;7.00;99.90;;;;;;5090612;28;20028;-79
2021/12/11 13:08:34;;;;;;;8.32;5.95;;;7.10;99.90;;;;;;5089342;28;20032;-80
2021/12/11 13:11:06;;;;;;;8.65;5.18;;;7.00;99.90;;;;;;5090774;28;20032;-80
2021/12/11 13:13:32;;;;;;;10.17;6.40;;;7.00;99.90;;;;;;5091464;28;20027;-79
2021/12/11 13:16:23;;;;;;;6.15;3.78;;;7.00;99.90;;;;;;5090560;28;20340;-78
2021/12/11 13:18:54;;;;;;;9.05;5.75;;;6.90;99.90;;;;;;5090866;28;20012;-79
2021/12/11 13:21:37;;;;;;;10.85;6.10;;;7.00;99.90;;;;;;5085461;28;20118;-79
2021/12/11 13:24:06;;;;;;;9.65;5.95;;;7.00;99.90;;;;;;5089502;28;20046;-79
2021/12/11 13:26:34;;;;;;;5.80;3.92;;;7.00;99.90;;;;;;5090876;28;20028;-81
2021/12/11 13:29:08;;;;;;;7.95;4.35;;;7.00;99.90;;;;;;5093985;28;20020;-77
2021/12/11 13:31:36;;;;;;;8.05;5.63;;;7.00;99.90;;;;;;5094481;28;20174;-81
2021/12/11 13:34:05;;;;;;;9.07;5.45;;;6.90;99.90;;;;;;5090797;28;20027;-77
2021/12/11 13:36:32;;;;;;;10.68;5.90;;;6.90;99.90;;;;;;5091187;28;20032;-76
2021/12/11 13:38:58;;;;;;;8.27;5.55;;;7.00;99.90;;;;;;5089999;28;20034;-79